CMP2677 MMAA-MMPR
Flight info
| Callsign | CMP2677 |
|---|---|
| Flight time | 1h 3m |
| Altitude | 38000 |
| Route | AGLON1B AGLON UT145 UPN UJ3 GDL UT124 NOTUP NOTUP1B |
| Aircraft | B738/M-SDE2E3FGHIRWXY/LB1 |
Departure
| Time | 2026-05-08 03:02 |
|---|---|
| Airport | General Juan N. Álvarez International Airport (MMAA) |
Arrival
| Time | 2026-05-08 04:05 |
|---|---|
| Airport | Puerto Vallarta International Airport (MMPR) |
| Time | Latitude | Longitude | Altitude | Speed | Heading |
|---|---|---|---|---|---|
| 2026-05-08 02:41 | 16.76164 | -99.75620 | 16 ft | 0 kts | 19° |
| 2026-05-08 02:50 | 16.76161 | -99.75621 | 16 ft | 3 kts | 19° |
| 2026-05-08 02:50 | 16.76136 | -99.75632 | 18 ft | 4 kts | 28° |
| 2026-05-08 02:50 | 16.76113 | -99.75646 | 18 ft | 4 kts | 39° |
| 2026-05-08 02:51 | 16.76094 | -99.75666 | 19 ft | 4 kts | 55° |
| 2026-05-08 02:51 | 16.76082 | -99.75690 | 16 ft | 4 kts | 83° |
| 2026-05-08 02:51 | 16.76082 | -99.75706 | 16 ft | 0 kts | 108° |
| 2026-05-08 02:55 | 16.76076 | -99.75686 | 16 ft | 6 kts | 108° |
| 2026-05-08 02:55 | 16.76059 | -99.75628 | 18 ft | 12 kts | 108° |
| 2026-05-08 02:56 | 16.76026 | -99.75523 | 18 ft | 18 kts | 108° |
| 2026-05-08 02:56 | 16.75984 | -99.75391 | 18 ft | 16 kts | 112° |
| 2026-05-08 02:56 | 16.75906 | -99.75337 | 17 ft | 12 kts | 140° |
| 2026-05-08 02:56 | 16.75873 | -99.75262 | 19 ft | 11 kts | 108° |
| 2026-05-08 02:57 | 16.75850 | -99.75189 | 17 ft | 10 kts | 108° |
| 2026-05-08 02:57 | 16.75828 | -99.75121 | 18 ft | 10 kts | 108° |
| 2026-05-08 02:57 | 16.75807 | -99.75054 | 18 ft | 10 kts | 108° |
| 2026-05-08 02:57 | 16.75785 | -99.74984 | 18 ft | 11 kts | 108° |
| 2026-05-08 02:58 | 16.75763 | -99.74911 | 16 ft | 11 kts | 108° |
| 2026-05-08 02:58 | 16.75740 | -99.74838 | 17 ft | 10 kts | 108° |
| 2026-05-08 02:58 | 16.75718 | -99.74767 | 16 ft | 11 kts | 107° |
| 2026-05-08 02:58 | 16.75694 | -99.74685 | 16 ft | 13 kts | 107° |
| 2026-05-08 02:59 | 16.75662 | -99.74580 | 16 ft | 17 kts | 109° |
| 2026-05-08 02:59 | 16.75620 | -99.74454 | 16 ft | 20 kts | 109° |
| 2026-05-08 02:59 | 16.75573 | -99.74309 | 16 ft | 22 kts | 108° |
| 2026-05-08 02:59 | 16.75522 | -99.74145 | 18 ft | 25 kts | 108° |
| 2026-05-08 03:00 | 16.75468 | -99.73970 | 16 ft | 26 kts | 108° |
| 2026-05-08 03:00 | 16.75410 | -99.73781 | 17 ft | 28 kts | 108° |
| 2026-05-08 03:00 | 16.75345 | -99.73584 | 16 ft | 29 kts | 109° |
| 2026-05-08 03:00 | 16.75288 | -99.73400 | 16 ft | 21 kts | 107° |
| 2026-05-08 03:01 | 16.75197 | -99.73334 | 17 ft | 13 kts | 197° |
| 2026-05-08 03:01 | 16.75143 | -99.73352 | 18 ft | 7 kts | 198° |
| 2026-05-08 03:01 | 16.75092 | -99.73383 | 18 ft | 10 kts | 248° |
| 2026-05-08 03:01 | 16.75133 | -99.73536 | 17 ft | 58 kts | 288° |
| 2026-05-08 03:02 | 16.75359 | -99.74260 | 19 ft | 148 kts | 288° |
| 2026-05-08 03:02 | 16.75745 | -99.75480 | 346 ft | 197 kts | 288° |
| 2026-05-08 03:02 | 16.76210 | -99.76916 | 1027 ft | 221 kts | 288° |
| 2026-05-08 03:02 | 16.76716 | -99.78486 | 1836 ft | 235 kts | 287° |
| 2026-05-08 03:03 | 16.77237 | -99.80108 | 2748 ft | 235 kts | 287° |
| 2026-05-08 03:03 | 16.77742 | -99.81752 | 3417 ft | 241 kts | 287° |
| 2026-05-08 03:03 | 16.78267 | -99.83461 | 3858 ft | 257 kts | 287° |
| 2026-05-08 03:03 | 16.78833 | -99.85276 | 4489 ft | 268 kts | 287° |
| 2026-05-08 03:04 | 16.79641 | -99.87010 | 5448 ft | 270 kts | 307° |
| 2026-05-08 03:04 | 16.81107 | -99.88244 | 5870 ft | 275 kts | 334° |
| 2026-05-08 03:04 | 16.82944 | -99.88903 | 6009 ft | 282 kts | 343° |
| 2026-05-08 03:04 | 16.84843 | -99.89412 | 6020 ft | 282 kts | 345° |
| 2026-05-08 03:05 | 16.86746 | -99.89901 | 6033 ft | 281 kts | 345° |
| 2026-05-08 03:05 | 16.88638 | -99.90401 | 6045 ft | 281 kts | 345° |
| 2026-05-08 03:05 | 16.90533 | -99.90917 | 6048 ft | 281 kts | 345° |
| 2026-05-08 03:05 | 16.92425 | -99.91440 | 6051 ft | 282 kts | 344° |
| 2026-05-08 03:06 | 16.94326 | -99.91968 | 6048 ft | 282 kts | 344° |
| 2026-05-08 03:06 | 16.96156 | -99.92671 | 6050 ft | 282 kts | 326° |
| 2026-05-08 03:06 | 16.97717 | -99.93938 | 6453 ft | 287 kts | 320° |
| 2026-05-08 03:06 | 16.99261 | -99.95278 | 7285 ft | 290 kts | 320° |
| 2026-05-08 03:07 | 17.00821 | -99.96630 | 8122 ft | 294 kts | 320° |
| 2026-05-08 03:07 | 17.02412 | -99.98003 | 8943 ft | 298 kts | 321° |
| 2026-05-08 03:07 | 17.04026 | -99.99390 | 9736 ft | 303 kts | 321° |
| 2026-05-08 03:07 | 17.05673 | -100.00802 | 10423 ft | 311 kts | 321° |
| 2026-05-08 03:08 | 17.07407 | -100.02285 | 10642 ft | 335 kts | 321° |
| 2026-05-08 03:08 | 17.09272 | -100.03880 | 10819 ft | 358 kts | 321° |
| 2026-05-08 03:08 | 17.11259 | -100.05578 | 10974 ft | 379 kts | 321° |
| 2026-05-08 03:08 | 17.13354 | -100.07367 | 11101 ft | 398 kts | 321° |
| 2026-05-08 03:09 | 17.15542 | -100.09237 | 11280 ft | 412 kts | 321° |
| 2026-05-08 03:09 | 17.17785 | -100.11154 | 11669 ft | 419 kts | 321° |
| 2026-05-08 03:09 | 17.20042 | -100.13083 | 12174 ft | 422 kts | 321° |
| 2026-05-08 03:09 | 17.22328 | -100.15036 | 12684 ft | 424 kts | 321° |
| 2026-05-08 03:10 | 17.24618 | -100.16994 | 13175 ft | 428 kts | 321° |
| 2026-05-08 03:10 | 17.26082 | -100.18247 | 13483 ft | 430 kts | 322° |
| 2026-05-08 03:10 | 17.28405 | -100.20235 | 13937 ft | 433 kts | 322° |
| 2026-05-08 03:10 | 17.30748 | -100.22241 | 14345 ft | 436 kts | 321° |
| 2026-05-08 03:11 | 17.33103 | -100.24258 | 14764 ft | 439 kts | 321° |
| 2026-05-08 03:11 | 17.36245 | -100.26951 | 15332 ft | 442 kts | 321° |
| 2026-05-08 03:11 | 17.37863 | -100.28337 | 15603 ft | 444 kts | 321° |
| 2026-05-08 03:11 | 17.40236 | -100.30371 | 15982 ft | 448 kts | 321° |
| 2026-05-08 03:12 | 17.42661 | -100.32450 | 16335 ft | 451 kts | 321° |
| 2026-05-08 03:12 | 17.45093 | -100.34537 | 16734 ft | 454 kts | 321° |
| 2026-05-08 03:12 | 17.47539 | -100.36638 | 17125 ft | 456 kts | 321° |
| 2026-05-08 03:12 | 17.50002 | -100.38755 | 17508 ft | 458 kts | 321° |
| 2026-05-08 03:13 | 17.52472 | -100.40878 | 17880 ft | 461 kts | 321° |
| 2026-05-08 03:13 | 17.54957 | -100.43016 | 18216 ft | 464 kts | 320° |
| 2026-05-08 03:13 | 17.57455 | -100.45165 | 18510 ft | 467 kts | 321° |
| 2026-05-08 03:13 | 17.59974 | -100.47332 | 18807 ft | 468 kts | 320° |
| 2026-05-08 03:14 | 17.62496 | -100.49504 | 19086 ft | 469 kts | 320° |
| 2026-05-08 03:14 | 17.65022 | -100.51680 | 19396 ft | 471 kts | 320° |
| 2026-05-08 03:14 | 17.67559 | -100.53865 | 19703 ft | 472 kts | 320° |
| 2026-05-08 03:14 | 17.70099 | -100.56055 | 19986 ft | 475 kts | 320° |
| 2026-05-08 03:15 | 17.72657 | -100.58260 | 20255 ft | 476 kts | 320° |
| 2026-05-08 03:15 | 17.75218 | -100.60470 | 20586 ft | 476 kts | 320° |
| 2026-05-08 03:15 | 17.77749 | -100.62653 | 20795 ft | 479 kts | 320° |
| 2026-05-08 03:15 | 17.80334 | -100.64885 | 21041 ft | 481 kts | 320° |
| 2026-05-08 03:16 | 17.82925 | -100.67121 | 21319 ft | 482 kts | 320° |
| 2026-05-08 03:16 | 17.85509 | -100.69353 | 21545 ft | 483 kts | 320° |
| 2026-05-08 03:16 | 17.88114 | -100.71603 | 21753 ft | 486 kts | 320° |
| 2026-05-08 03:16 | 17.90726 | -100.73861 | 21968 ft | 488 kts | 319° |
| 2026-05-08 03:17 | 17.93347 | -100.76127 | 22170 ft | 489 kts | 319° |
| 2026-05-08 03:17 | 17.95980 | -100.78407 | 22411 ft | 490 kts | 319° |
| 2026-05-08 03:17 | 17.98603 | -100.80687 | 22625 ft | 491 kts | 319° |
| 2026-05-08 03:17 | 18.01243 | -100.82989 | 22828 ft | 493 kts | 319° |
| 2026-05-08 03:18 | 18.03891 | -100.85299 | 23021 ft | 495 kts | 319° |
| 2026-05-08 03:18 | 18.06549 | -100.87617 | 23206 ft | 496 kts | 319° |
| 2026-05-08 03:18 | 18.09203 | -100.89933 | 23407 ft | 497 kts | 319° |
| 2026-05-08 03:18 | 18.11872 | -100.92261 | 23549 ft | 499 kts | 319° |
| 2026-05-08 03:19 | 18.14558 | -100.94596 | 23689 ft | 501 kts | 319° |
| 2026-05-08 03:19 | 18.17243 | -100.96922 | 23900 ft | 500 kts | 319° |
| 2026-05-08 03:19 | 18.19930 | -100.99248 | 24056 ft | 501 kts | 319° |
| 2026-05-08 03:19 | 18.22633 | -101.01588 | 24172 ft | 502 kts | 319° |
| 2026-05-08 03:20 | 18.25333 | -101.03927 | 24303 ft | 503 kts | 319° |
| 2026-05-08 03:20 | 18.28038 | -101.06275 | 24452 ft | 504 kts | 319° |
| 2026-05-08 03:20 | 18.30760 | -101.08638 | 24601 ft | 505 kts | 319° |
| 2026-05-08 03:20 | 18.33436 | -101.10963 | 24728 ft | 505 kts | 319° |
| 2026-05-08 03:21 | 18.36146 | -101.13317 | 24867 ft | 506 kts | 319° |
| 2026-05-08 03:21 | 18.38865 | -101.15681 | 24965 ft | 506 kts | 319° |
| 2026-05-08 03:21 | 18.41583 | -101.18046 | 25052 ft | 508 kts | 319° |
| 2026-05-08 03:21 | 18.44306 | -101.20417 | 25187 ft | 508 kts | 319° |
| 2026-05-08 03:22 | 18.47028 | -101.22787 | 25403 ft | 506 kts | 319° |
| 2026-05-08 03:22 | 18.49740 | -101.25149 | 25614 ft | 505 kts | 319° |
| 2026-05-08 03:22 | 18.52443 | -101.27504 | 25826 ft | 504 kts | 319° |
| 2026-05-08 03:22 | 18.55148 | -101.29862 | 25999 ft | 504 kts | 319° |
| 2026-05-08 03:23 | 18.57854 | -101.32224 | 26177 ft | 504 kts | 319° |
| 2026-05-08 03:23 | 18.60522 | -101.34553 | 26391 ft | 503 kts | 319° |
| 2026-05-08 03:23 | 18.63217 | -101.36908 | 26647 ft | 502 kts | 318° |
| 2026-05-08 03:23 | 18.65904 | -101.39257 | 26897 ft | 501 kts | 318° |
| 2026-05-08 03:24 | 18.68589 | -101.41606 | 27155 ft | 500 kts | 318° |
| 2026-05-08 03:24 | 18.71264 | -101.43947 | 27414 ft | 499 kts | 318° |
| 2026-05-08 03:24 | 18.73932 | -101.46282 | 27649 ft | 499 kts | 318° |
| 2026-05-08 03:24 | 18.76608 | -101.48626 | 27892 ft | 499 kts | 318° |
| 2026-05-08 03:25 | 18.79274 | -101.50963 | 28147 ft | 498 kts | 318° |
| 2026-05-08 03:25 | 18.81939 | -101.53299 | 28435 ft | 497 kts | 318° |
| 2026-05-08 03:25 | 18.84599 | -101.55632 | 28732 ft | 496 kts | 318° |
| 2026-05-08 03:25 | 18.87250 | -101.57958 | 29014 ft | 495 kts | 317° |
| 2026-05-08 03:26 | 18.89895 | -101.60279 | 29317 ft | 494 kts | 317° |
| 2026-05-08 03:26 | 18.92540 | -101.62602 | 29641 ft | 493 kts | 317° |
| 2026-05-08 03:26 | 18.95170 | -101.64912 | 29966 ft | 492 kts | 317° |
| 2026-05-08 03:26 | 18.97762 | -101.67190 | 30252 ft | 490 kts | 317° |
| 2026-05-08 03:27 | 19.00382 | -101.69493 | 30529 ft | 489 kts | 317° |
| 2026-05-08 03:27 | 19.03001 | -101.71797 | 30821 ft | 488 kts | 317° |
| 2026-05-08 03:27 | 19.05606 | -101.74090 | 31133 ft | 486 kts | 317° |
| 2026-05-08 03:27 | 19.08196 | -101.76370 | 31458 ft | 484 kts | 317° |
| 2026-05-08 03:28 | 19.10784 | -101.78649 | 31790 ft | 482 kts | 317° |
| 2026-05-08 03:28 | 19.13357 | -101.80916 | 32100 ft | 481 kts | 317° |
| 2026-05-08 03:28 | 19.15926 | -101.83181 | 32402 ft | 480 kts | 317° |
| 2026-05-08 03:28 | 19.18483 | -101.85436 | 32739 ft | 479 kts | 316° |
| 2026-05-08 03:29 | 19.21035 | -101.87687 | 33083 ft | 476 kts | 316° |
| 2026-05-08 03:29 | 19.23578 | -101.89931 | 33438 ft | 475 kts | 316° |
| 2026-05-08 03:29 | 19.26108 | -101.92166 | 33774 ft | 473 kts | 316° |
| 2026-05-08 03:29 | 19.28639 | -101.94402 | 34084 ft | 472 kts | 316° |
| 2026-05-08 03:30 | 19.33673 | -101.98853 | 34614 ft | 471 kts | 316° |
| 2026-05-08 03:30 | 19.38665 | -102.03270 | 35156 ft | 469 kts | 316° |
| 2026-05-08 03:31 | 19.43321 | -102.08070 | 35664 ft | 464 kts | 309° |
| 2026-05-08 03:31 | 19.47731 | -102.13066 | 36177 ft | 463 kts | 309° |
| 2026-05-08 03:32 | 19.49929 | -102.15560 | 36394 ft | 462 kts | 309° |
| 2026-05-08 03:32 | 19.52131 | -102.18044 | 36652 ft | 461 kts | 309° |
| 2026-05-08 03:32 | 19.54331 | -102.20512 | 36937 ft | 460 kts | 309° |
| 2026-05-08 03:32 | 19.56531 | -102.22971 | 37191 ft | 460 kts | 309° |
| 2026-05-08 03:33 | 19.58708 | -102.25403 | 37427 ft | 459 kts | 309° |
| 2026-05-08 03:33 | 19.60908 | -102.27859 | 37674 ft | 458 kts | 309° |
| 2026-05-08 03:33 | 19.63102 | -102.30309 | 37903 ft | 458 kts | 309° |
| 2026-05-08 03:34 | 19.67507 | -102.35236 | 37985 ft | 460 kts | 309° |
| 2026-05-08 03:34 | 19.71903 | -102.40156 | 37974 ft | 457 kts | 309° |
| 2026-05-08 03:35 | 19.76273 | -102.45052 | 37976 ft | 454 kts | 309° |
| 2026-05-08 03:35 | 19.80578 | -102.49882 | 37961 ft | 452 kts | 309° |
| 2026-05-08 03:36 | 19.84897 | -102.54729 | 37955 ft | 451 kts | 309° |
| 2026-05-08 03:37 | 19.93377 | -102.64270 | 37962 ft | 451 kts | 309° |
| 2026-05-08 03:37 | 19.97683 | -102.69123 | 37967 ft | 452 kts | 309° |
| 2026-05-08 03:38 | 20.02015 | -102.74010 | 37960 ft | 454 kts | 309° |
| 2026-05-08 03:38 | 20.06354 | -102.78906 | 37956 ft | 456 kts | 309° |
| 2026-05-08 03:39 | 20.10702 | -102.83827 | 37956 ft | 456 kts | 308° |
| 2026-05-08 03:39 | 20.14734 | -102.88402 | 37958 ft | 458 kts | 308° |
| 2026-05-08 03:40 | 20.19100 | -102.93361 | 37956 ft | 459 kts | 308° |
| 2026-05-08 03:40 | 20.23447 | -102.98300 | 37953 ft | 460 kts | 308° |
| 2026-05-08 03:41 | 20.27827 | -103.03280 | 37954 ft | 460 kts | 308° |
| 2026-05-08 03:41 | 20.32200 | -103.08259 | 37998 ft | 459 kts | 308° |
| 2026-05-08 03:42 | 20.36559 | -103.13224 | 38036 ft | 458 kts | 308° |
| 2026-05-08 03:42 | 20.40919 | -103.18197 | 38084 ft | 457 kts | 308° |
| 2026-05-08 03:43 | 20.45257 | -103.23149 | 38133 ft | 456 kts | 308° |
| 2026-05-08 03:43 | 20.49578 | -103.28085 | 38140 ft | 454 kts | 307° |
| 2026-05-08 03:44 | 20.53147 | -103.33521 | 38136 ft | 442 kts | 291° |
| 2026-05-08 03:44 | 20.55362 | -103.39524 | 38137 ft | 437 kts | 285° |
| 2026-05-08 03:45 | 20.57458 | -103.45603 | 38105 ft | 436 kts | 286° |
| 2026-05-08 03:45 | 20.59585 | -103.51670 | 38066 ft | 436 kts | 286° |
| 2026-05-08 03:46 | 20.61736 | -103.57745 | 37589 ft | 442 kts | 286° |
| 2026-05-08 03:46 | 20.62823 | -103.60809 | 37024 ft | 440 kts | 286° |
| 2026-05-08 03:46 | 20.63903 | -103.63853 | 36417 ft | 438 kts | 286° |
| 2026-05-08 03:46 | 20.64982 | -103.66897 | 35775 ft | 439 kts | 286° |
| 2026-05-08 03:47 | 20.66062 | -103.69951 | 35062 ft | 441 kts | 287° |
| 2026-05-08 03:47 | 20.67149 | -103.73026 | 34347 ft | 444 kts | 287° |
| 2026-05-08 03:47 | 20.68244 | -103.76126 | 33565 ft | 447 kts | 287° |
| 2026-05-08 03:47 | 20.69344 | -103.79240 | 32771 ft | 449 kts | 287° |
| 2026-05-08 03:48 | 20.70434 | -103.82329 | 33447 ft | 447 kts | 289° |
| 2026-05-08 03:48 | 20.71516 | -103.85401 | 32974 ft | 438 kts | 288° |
| 2026-05-08 03:48 | 20.72577 | -103.88419 | 32404 ft | 433 kts | 288° |
| 2026-05-08 03:48 | 20.73644 | -103.91450 | 30175 ft | 439 kts | 286° |
| 2026-05-08 03:49 | 20.74732 | -103.94569 | 28737 ft | 455 kts | 286° |
| 2026-05-08 03:49 | 20.75850 | -103.97777 | 27337 ft | 463 kts | 287° |
| 2026-05-08 03:49 | 20.76981 | -104.01009 | 26076 ft | 467 kts | 287° |
| 2026-05-08 03:49 | 20.78117 | -104.04249 | 25311 ft | 464 kts | 287° |
| 2026-05-08 03:50 | 20.79248 | -104.07475 | 24537 ft | 462 kts | 288° |
| 2026-05-08 03:50 | 20.80367 | -104.10670 | 23808 ft | 459 kts | 288° |
| 2026-05-08 03:50 | 20.81480 | -104.13854 | 22982 ft | 456 kts | 288° |
| 2026-05-08 03:50 | 20.82584 | -104.17016 | 22221 ft | 451 kts | 288° |
| 2026-05-08 03:51 | 20.83674 | -104.20139 | 21475 ft | 447 kts | 288° |
| 2026-05-08 03:51 | 20.84726 | -104.23252 | 20754 ft | 441 kts | 283° |
| 2026-05-08 03:51 | 20.85165 | -104.26457 | 19990 ft | 433 kts | 266° |
| 2026-05-08 03:51 | 20.84784 | -104.29636 | 19209 ft | 429 kts | 257° |
| 2026-05-08 03:52 | 20.84218 | -104.32762 | 18474 ft | 427 kts | 257° |
| 2026-05-08 03:52 | 20.83659 | -104.35871 | 17715 ft | 424 kts | 257° |
| 2026-05-08 03:52 | 20.83135 | -104.38946 | 17013 ft | 413 kts | 257° |
| 2026-05-08 03:52 | 20.82648 | -104.41917 | 16317 ft | 399 kts | 257° |
| 2026-05-08 03:53 | 20.82204 | -104.44808 | 15663 ft | 390 kts | 261° |
| 2026-05-08 03:53 | 20.82288 | -104.47682 | 15026 ft | 385 kts | 274° |
| 2026-05-08 03:53 | 20.82644 | -104.50520 | 14382 ft | 388 kts | 275° |
| 2026-05-08 03:53 | 20.83015 | -104.53460 | 13715 ft | 409 kts | 275° |
| 2026-05-08 03:54 | 20.83370 | -104.56468 | 13423 ft | 400 kts | 274° |
| 2026-05-08 03:54 | 20.83693 | -104.59342 | 13193 ft | 378 kts | 274° |
| 2026-05-08 03:54 | 20.83986 | -104.62018 | 12977 ft | 357 kts | 274° |
| 2026-05-08 03:54 | 20.84267 | -104.64625 | 12451 ft | 348 kts | 274° |
| 2026-05-08 03:55 | 20.84539 | -104.67158 | 11971 ft | 339 kts | 274° |
| 2026-05-08 03:55 | 20.84805 | -104.69634 | 11504 ft | 331 kts | 275° |
| 2026-05-08 03:55 | 20.85065 | -104.72058 | 11032 ft | 324 kts | 275° |
| 2026-05-08 03:55 | 20.85323 | -104.74453 | 10577 ft | 325 kts | 275° |
| 2026-05-08 03:56 | 20.85580 | -104.76841 | 10102 ft | 319 kts | 276° |
| 2026-05-08 03:56 | 20.85828 | -104.79144 | 9961 ft | 300 kts | 276° |
| 2026-05-08 03:56 | 20.86059 | -104.81280 | 9900 ft | 281 kts | 276° |
| 2026-05-08 03:56 | 20.86278 | -104.83328 | 9500 ft | 275 kts | 276° |
| 2026-05-08 03:57 | 20.86495 | -104.85358 | 9008 ft | 274 kts | 277° |
| 2026-05-08 03:57 | 20.86711 | -104.87377 | 8506 ft | 273 kts | 277° |
| 2026-05-08 03:57 | 20.86928 | -104.89402 | 8023 ft | 273 kts | 278° |
| 2026-05-08 03:57 | 20.87141 | -104.91404 | 7575 ft | 271 kts | 278° |
| 2026-05-08 03:58 | 20.87353 | -104.93386 | 7164 ft | 270 kts | 278° |
| 2026-05-08 03:58 | 20.87566 | -104.95384 | 6771 ft | 270 kts | 279° |
| 2026-05-08 03:58 | 20.87777 | -104.97362 | 6416 ft | 267 kts | 279° |
| 2026-05-08 03:58 | 20.87983 | -104.99302 | 6216 ft | 256 kts | 279° |
| 2026-05-08 03:59 | 20.88118 | -105.01175 | 5927 ft | 253 kts | 267° |
| 2026-05-08 03:59 | 20.87547 | -105.02935 | 5649 ft | 252 kts | 239° |
| 2026-05-08 03:59 | 20.86466 | -105.04360 | 5545 ft | 239 kts | 229° |
| 2026-05-08 03:59 | 20.85365 | -105.05605 | 5454 ft | 222 kts | 228° |
| 2026-05-08 04:00 | 20.84332 | -105.06746 | 5349 ft | 205 kts | 228° |
| 2026-05-08 04:00 | 20.83374 | -105.07816 | 5176 ft | 194 kts | 229° |
| 2026-05-08 04:00 | 20.82453 | -105.08858 | 4846 ft | 193 kts | 229° |
| 2026-05-08 04:00 | 20.81539 | -105.09900 | 4536 ft | 192 kts | 229° |
| 2026-05-08 04:01 | 20.80629 | -105.10940 | 4219 ft | 189 kts | 229° |
| 2026-05-08 04:01 | 20.79740 | -105.11957 | 3790 ft | 188 kts | 228° |
| 2026-05-08 04:01 | 20.79149 | -105.12634 | 3512 ft | 188 kts | 228° |
| 2026-05-08 04:01 | 20.77963 | -105.13995 | 2958 ft | 187 kts | 227° |
| 2026-05-08 04:02 | 20.77376 | -105.14669 | 2706 ft | 185 kts | 227° |
| 2026-05-08 04:02 | 20.76514 | -105.15657 | 2430 ft | 173 kts | 227° |
| 2026-05-08 04:02 | 20.75753 | -105.16530 | 2213 ft | 150 kts | 227° |
| 2026-05-08 04:02 | 20.75051 | -105.17335 | 1906 ft | 149 kts | 227° |
| 2026-05-08 04:03 | 20.74339 | -105.18153 | 1802 ft | 150 kts | 227° |
| 2026-05-08 04:03 | 20.72995 | -105.19695 | 1487 ft | 143 kts | 226° |
| 2026-05-08 04:03 | 20.72320 | -105.20469 | 1281 ft | 142 kts | 226° |
| 2026-05-08 04:04 | 20.71643 | -105.21247 | 1086 ft | 141 kts | 226° |
| 2026-05-08 04:04 | 20.70988 | -105.21998 | 896 ft | 136 kts | 226° |
| 2026-05-08 04:04 | 20.70343 | -105.22747 | 610 ft | 141 kts | 227° |
| 2026-05-08 04:04 | 20.69663 | -105.23531 | 296 ft | 145 kts | 225° |
| 2026-05-08 04:05 | 20.68975 | -105.24306 | 62 ft | 142 kts | 225° |
| 2026-05-08 04:05 | 20.68335 | -105.25042 | 27 ft | 119 kts | 228° |
| 2026-05-08 04:05 | 20.67856 | -105.25594 | 29 ft | 84 kts | 227° |
| 2026-05-08 04:05 | 20.67638 | -105.25844 | 28 ft | 34 kts | 227° |
| 2026-05-08 04:06 | 20.67467 | -105.25945 | 27 ft | 20 kts | 195° |
| 2026-05-08 04:06 | 20.67358 | -105.25958 | 28 ft | 12 kts | 132° |
| 2026-05-08 04:06 | 20.67374 | -105.25886 | 28 ft | 11 kts | 43° |
| 2026-05-08 04:06 | 20.67431 | -105.25822 | 28 ft | 13 kts | 47° |
| 2026-05-08 04:07 | 20.67501 | -105.25740 | 28 ft | 16 kts | 48° |
| 2026-05-08 04:07 | 20.67580 | -105.25648 | 28 ft | 19 kts | 47° |
| 2026-05-08 04:07 | 20.67673 | -105.25541 | 28 ft | 21 kts | 47° |
| 2026-05-08 04:07 | 20.67776 | -105.25425 | 28 ft | 23 kts | 46° |
| 2026-05-08 04:08 | 20.67885 | -105.25299 | 28 ft | 23 kts | 44° |
| 2026-05-08 04:08 | 20.67992 | -105.25175 | 28 ft | 23 kts | 45° |
| 2026-05-08 04:08 | 20.68083 | -105.25063 | 28 ft | 13 kts | 64° |
| 2026-05-08 04:08 | 20.68044 | -105.24991 | 28 ft | 13 kts | 136° |
| 2026-05-08 04:09 | 20.67981 | -105.24926 | 28 ft | 12 kts | 120° |
| 2026-05-08 04:09 | 20.68002 | -105.24871 | 28 ft | 5 kts | 49° |
| 2026-05-08 04:09 | 20.68003 | -105.24870 | 28 ft | 0 kts | 49° |
| 2026-05-08 04:11 | 20.68004 | -105.24868 | 28 ft | 1 kts | 50° |
| 2026-05-08 04:11 | 20.68005 | -105.24867 | 28 ft | 1 kts | 50° |
| 2026-05-08 04:12 | 20.68008 | -105.24859 | 28 ft | 1 kts | 72° |
| 2026-05-08 04:12 | 20.68010 | -105.24841 | 28 ft | 3 kts | 88° |
| 2026-05-08 04:12 | 20.68008 | -105.24808 | 28 ft | 6 kts | 94° |
| 2026-05-08 04:12 | 20.68006 | -105.24775 | 28 ft | 3 kts | 94° |
| 2026-05-08 04:13 | 20.68005 | -105.24758 | 28 ft | 1 kts | 95° |
| 2026-05-08 04:13 | 20.68005 | -105.24756 | 28 ft | 0 kts | 95° |